Time;durP1;ratioP1;P1;durP2;ratioP2;P2;SDS_P1;SDS_P2;PMS_P1;PMS_P2;Temp;Humidity;BMP_temperature;BMP_pressure;BME280_temperature;BME280_humidity;BME280_pressure;Samples;Min_cycle;Max_cycle;Signal;HPM_P1;HPM_P2
2022/05/10 00:00:21;;;;;;;10.17;7.60;;;13.60;99.90;;;;;;4973497;28;20211;-78
2022/05/10 00:02:51;;;;;;;9.83;7.53;;;13.50;99.90;;;;;;4963439;28;20207;-76
2022/05/10 00:05:40;;;;;;;9.53;7.13;;;13.40;99.90;;;;;;4949152;28;20304;-76
2022/05/10 00:08:11;;;;;;;8.40;6.97;;;13.30;99.90;;;;;;4954717;28;20269;-76
2022/05/10 00:10:38;;;;;;;12.17;7.33;;;13.30;99.90;;;;;;4966869;28;20272;-76
2022/05/10 00:13:06;;;;;;;9.17;7.73;;;13.20;99.90;;;;;;4957531;28;20609;-75
2022/05/10 00:15:33;;;;;;;10.83;8.07;;;13.10;99.90;;;;;;4961769;28;20206;-75
2022/05/10 00:18:00;;;;;;;8.70;7.80;;;13.30;99.90;;;;;;4961431;28;20214;-75
2022/05/10 00:20:27;;;;;;;11.00;8.27;;;13.40;99.90;;;;;;4961703;28;20652;-75
2022/05/10 00:22:54;;;;;;;9.83;8.03;;;13.30;99.90;;;;;;4949970;28;20247;-77
2022/05/10 00:25:27;;;;;;;12.70;8.50;;;13.40;99.90;;;;;;4958014;28;20203;-75
2022/05/10 00:27:55;;;;;;;9.30;7.73;;;13.60;99.90;;;;;;4957086;28;20272;-75
2022/05/10 00:30:22;;;;;;;12.07;7.83;;;13.60;99.90;;;;;;4962920;28;20226;-74
2022/05/10 00:32:49;;;;;;;9.77;7.70;;;13.50;99.90;;;;;;4958134;28;20211;-76
2022/05/10 00:35:19;;;;;;;11.00;7.87;;;13.40;99.90;;;;;;4960561;28;20579;-76
2022/05/10 00:37:48;;;;;;;9.63;7.27;;;13.30;99.90;;;;;;4955886;28;20222;-76
2022/05/10 00:40:19;;;;;;;9.70;7.73;;;13.20;99.90;;;;;;4953184;28;20216;-74
2022/05/10 00:43:04;;;;;;;11.90;7.93;;;13.10;99.90;;;;;;4960476;28;20206;-77
2022/05/10 00:45:44;;;;;;;9.53;7.37;;;13.00;99.90;;;;;;4954893;28;20199;-80
2022/05/10 00:48:35;;;;;;;10.33;8.03;;;13.00;99.90;;;;;;4948583;28;20284;-75
2022/05/10 00:51:25;;;;;;;9.93;7.97;;;13.00;99.90;;;;;;4958891;28;20296;-78
2022/05/10 00:53:58;;;;;;;8.50;7.53;;;12.90;99.90;;;;;;4954845;28;20256;-77
2022/05/10 00:56:46;;;;;;;10.97;7.70;;;12.90;99.90;;;;;;4956043;28;20598;-79
2022/05/10 00:59:21;;;;;;;10.50;7.33;;;12.90;99.90;;;;;;4952193;28;20210;-79
2022/05/10 01:01:55;;;;;;;10.53;7.33;;;12.80;99.90;;;;;;4956236;28;20195;-76
2022/05/10 01:04:51;;;;;;;10.27;7.93;;;12.80;99.90;;;;;;4956252;28;20202;-77
2022/05/10 01:07:26;;;;;;;11.53;7.77;;;12.70;99.90;;;;;;4959849;28;20293;-75
2022/05/10 01:10:02;;;;;;;11.00;8.27;;;12.80;99.90;;;;;;4961537;28;20258;-76
2022/05/10 01:12:35;;;;;;;11.87;8.67;;;12.80;99.90;;;;;;4968848;28;20675;-77
2022/05/10 01:15:10;;;;;;;10.07;8.20;;;13.10;99.90;;;;;;4965923;28;20204;-76
2022/05/10 01:17:37;;;;;;;10.47;7.67;;;12.90;99.90;;;;;;4949680;28;20217;-80
2022/05/10 01:20:06;;;;;;;9.57;7.43;;;12.80;99.90;;;;;;4967765;28;20198;-77
2022/05/10 01:22:43;;;;;;;10.80;7.77;;;12.70;99.90;;;;;;4956494;28;20419;-76
2022/05/10 01:25:25;;;;;;;11.10;8.67;;;12.70;99.90;;;;;;4951452;28;20201;-78
2022/05/10 01:28:07;;;;;;;11.53;8.07;;;12.60;99.90;;;;;;4966665;28;20272;-77
2022/05/10 01:30:33;;;;;;;11.90;8.47;;;12.50;99.90;;;;;;4966819;28;20218;-81
2022/05/10 01:36:06;;;;;;;13.90;9.53;;;12.50;99.90;;;;;;4953724;28;20687;-81
2022/05/10 01:38:40;;;;;;;11.83;8.50;;;12.50;99.90;;;;;;4950307;28;20218;-77
2022/05/10 01:41:25;;;;;;;11.87;8.87;;;12.60;99.90;;;;;;4957680;28;20197;-77
2022/05/10 01:44:18;;;;;;;10.30;8.73;;;12.60;99.90;;;;;;4950993;28;20253;-75
2022/05/10 01:46:48;;;;;;;14.17;9.10;;;12.50;99.90;;;;;;4945117;28;20223;-77
2022/05/10 01:49:40;;;;;;;13.60;9.50;;;12.50;99.90;;;;;;4942745;28;20211;-77
2022/05/10 01:52:16;;;;;;;12.47;9.70;;;12.50;99.90;;;;;;4951232;28;20198;-76
2022/05/10 01:55:04;;;;;;;11.53;9.30;;;12.50;99.90;;;;;;4952973;28;20582;-77
2022/05/10 01:57:34;;;;;;;11.77;8.87;;;12.70;99.90;;;;;;4946068;28;20217;-78
2022/05/10 02:00:22;;;;;;;12.97;9.60;;;12.60;99.90;;;;;;4950271;28;20205;-80
2022/05/10 02:03:18;;;;;;;11.40;9.53;;;12.50;99.90;;;;;;4950768;28;20344;-78
2022/05/10 02:06:04;;;;;;;10.90;8.63;;;12.50;99.90;;;;;;4953114;28;20296;-78
2022/05/10 02:08:34;;;;;;;11.40;8.90;;;12.40;99.90;;;;;;4953080;28;20269;-78
2022/05/10 02:11:08;;;;;;;10.97;8.50;;;12.40;99.90;;;;;;4951546;28;20707;-79
2022/05/10 02:13:40;;;;;;;11.10;8.80;;;12.40;99.90;;;;;;4951542;28;20194;-75
2022/05/10 02:16:34;;;;;;;12.30;8.17;;;12.30;99.90;;;;;;4948201;28;20202;-80
2022/05/10 02:19:16;;;;;;;12.33;9.07;;;12.20;99.90;;;;;;4951334;28;20224;-79
2022/05/10 02:21:53;;;;;;;12.47;9.67;;;12.10;99.90;;;;;;4951536;28;20203;-78
2022/05/10 02:24:38;;;;;;;14.33;9.17;;;12.20;99.90;;;;;;4948320;28;20289;-77
2022/05/10 02:27:10;;;;;;;11.90;9.00;;;12.20;99.90;;;;;;4951829;28;20205;-79
2022/05/10 02:29:43;;;;;;;10.03;8.73;;;12.10;99.90;;;;;;4951016;28;20274;-78
2022/05/10 02:35:07;;;;;;;11.80;9.30;;;12.10;99.90;;;;;;4953288;28;20210;-80
2022/05/10 02:37:34;;;;;;;14.20;10.17;;;12.10;99.90;;;;;;4957811;28;20713;-81
2022/05/10 02:40:03;;;;;;;15.27;10.47;;;12.20;99.90;;;;;;4953304;28;20198;-79
2022/05/10 02:42:31;;;;;;;13.50;10.43;;;12.40;99.90;;;;;;4952805;28;20658;-77
2022/05/10 02:44:58;;;;;;;12.97;9.57;;;12.50;99.90;;;;;;4952906;28;20213;-79
2022/05/10 02:47:32;;;;;;;11.20;9.13;;;12.40;99.90;;;;;;4955020;28;20220;-78
2022/05/10 02:49:59;;;;;;;12.53;9.87;;;12.30;99.90;;;;;;4960955;28;20225;-82
2022/05/10 02:52:27;;;;;;;13.10;9.40;;;12.20;99.90;;;;;;4951498;28;20205;-86
2022/05/10 02:54:55;;;;;;;15.17;10.07;;;12.10;99.90;;;;;;4952190;28;20198;-85
2022/05/10 02:57:24;;;;;;;14.27;10.43;;;12.10;99.90;;;;;;4951114;28;20369;-82
2022/05/10 02:59:54;;;;;;;14.13;9.30;;;12.30;99.90;;;;;;4949516;28;20203;-81
2022/05/10 03:02:25;;;;;;;14.97;9.67;;;12.20;99.90;;;;;;4952617;28;20204;-89
2022/05/10 03:04:58;;;;;;;11.97;9.40;;;12.00;99.90;;;;;;4951799;28;20206;-85
2022/05/10 03:07:26;;;;;;;13.43;9.00;;;12.10;99.90;;;;;;4951249;28;20221;-82
2022/05/10 03:09:53;;;;;;;14.50;9.57;;;12.10;99.90;;;;;;4948146;28;20716;-85
2022/05/10 03:12:20;;;;;;;13.43;9.27;;;11.90;99.90;;;;;;4952955;28;20466;-88
2022/05/10 03:14:47;;;;;;;13.37;9.53;;;11.90;99.90;;;;;;4953056;28;20592;-87
2022/05/10 03:17:13;;;;;;;13.40;9.67;;;11.90;99.90;;;;;;4948794;28;20222;-84
2022/05/10 03:19:41;;;;;;;11.87;9.47;;;11.90;99.90;;;;;;4952965;28;20247;-87
2022/05/10 03:22:09;;;;;;;16.27;10.00;;;11.80;99.90;;;;;;4944870;28;20572;-85
2022/05/10 03:24:36;;;;;;;16.60;10.60;;;11.80;99.90;;;;;;4952075;28;20273;-86
2022/05/10 03:27:06;;;;;;;12.50;9.77;;;11.90;99.90;;;;;;4955776;28;20671;-88
2022/05/10 03:29:33;;;;;;;13.60;10.27;;;11.90;99.90;;;;;;4952576;28;20268;-89
2022/05/10 03:32:00;;;;;;;11.93;9.63;;;11.90;99.90;;;;;;4949612;28;20192;-84
2022/05/10 03:37:12;;;;;;;11.47;9.40;;;11.70;99.90;;;;;;4941972;28;20217;-84
2022/05/10 03:39:39;;;;;;;13.97;9.57;;;11.80;99.90;;;;;;4952802;28;20709;-87
2022/05/10 03:42:06;;;;;;;13.47;9.93;;;11.80;99.90;;;;;;4952582;28;20632;-86
2022/05/10 03:44:34;;;;;;;12.87;9.80;;;11.70;99.90;;;;;;4959866;28;20192;-83
2022/05/10 03:47:01;;;;;;;12.73;9.87;;;11.70;99.90;;;;;;4949762;28;20653;-84
2022/05/10 03:49:28;;;;;;;13.23;9.90;;;11.60;99.90;;;;;;4949675;28;20201;-87
2022/05/10 03:51:55;;;;;;;12.03;8.87;;;11.70;99.90;;;;;;4950916;28;20219;-86
2022/05/10 03:54:23;;;;;;;11.80;9.20;;;11.60;99.90;;;;;;4952282;28;20657;-87
2022/05/10 03:56:51;;;;;;;11.30;9.13;;;11.70;99.90;;;;;;4956970;28;20233;-85
2022/05/10 03:59:19;;;;;;;12.23;9.80;;;11.70;99.90;;;;;;4951317;28;20238;-83
2022/05/10 04:01:46;;;;;;;13.10;9.47;;;11.70;99.90;;;;;;4952167;28;20587;-85
2022/05/10 04:04:14;;;;;;;13.90;9.83;;;11.70;99.90;;;;;;4951262;28;20202;-82
2022/05/10 04:06:41;;;;;;;11.90;9.33;;;11.80;99.90;;;;;;4959918;28;20205;-81
2022/05/10 04:09:08;;;;;;;13.70;10.10;;;11.80;99.90;;;;;;4953022;28;20225;-86
2022/05/10 04:11:35;;;;;;;12.43;10.47;;;11.80;99.90;;;;;;4951482;28;20224;-77
2022/05/10 04:14:03;;;;;;;12.50;9.97;;;12.10;99.90;;;;;;4948274;28;20375;-78
2022/05/10 04:16:29;;;;;;;12.30;9.40;;;12.30;99.90;;;;;;4944561;28;20222;-80
2022/05/10 04:18:56;;;;;;;15.07;9.87;;;12.20;99.90;;;;;;4956009;28;20216;-79
2022/05/10 04:21:23;;;;;;;12.17;9.83;;;12.30;99.90;;;;;;4954697;28;20194;-77
2022/05/10 04:23:49;;;;;;;12.33;9.87;;;12.20;99.90;;;;;;4953413;28;20202;-75
2022/05/10 04:26:16;;;;;;;13.40;10.00;;;12.30;99.90;;;;;;4954231;28;20585;-79
2022/05/10 04:28:44;;;;;;;14.87;9.77;;;12.50;99.90;;;;;;4957106;28;20232;-76
2022/05/10 04:31:12;;;;;;;13.97;9.80;;;12.70;99.90;;;;;;4949291;28;20705;-78
2022/05/10 04:33:39;;;;;;;12.33;9.30;;;12.80;99.90;;;;;;4954354;28;20202;-80
2022/05/10 04:36:08;;;;;;;14.93;9.77;;;12.90;99.90;;;;;;4956223;28;20210;-76
2022/05/10 04:38:41;;;;;;;11.70;8.57;;;13.00;99.90;;;;;;4951645;28;20221;-80
2022/05/10 04:41:25;;;;;;;10.93;8.70;;;13.00;99.90;;;;;;4952029;28;20198;-75
2022/05/10 04:44:08;;;;;;;11.70;8.70;;;12.90;99.90;;;;;;4956902;28;20212;-74
2022/05/10 04:46:38;;;;;;;13.67;9.43;;;12.90;99.90;;;;;;4960227;28;20214;-76
2022/05/10 04:49:06;;;;;;;13.50;9.07;;;12.90;99.90;;;;;;4947304;28;20240;-75
2022/05/10 04:51:34;;;;;;;12.40;9.47;;;13.10;99.90;;;;;;4946476;28;20217;-79
2022/05/10 04:54:00;;;;;;;13.70;9.07;;;13.20;99.90;;;;;;4952230;28;20676;-76
2022/05/10 04:56:27;;;;;;;11.77;8.90;;;13.40;99.90;;;;;;4951487;28;20258;-78
2022/05/10 04:58:54;;;;;;;15.17;9.13;;;13.40;99.90;;;;;;4956188;28;20635;-75
2022/05/10 05:01:27;;;;;;;14.30;9.30;;;13.50;99.90;;;;;;4954003;28;20220;-75
2022/05/10 05:03:56;;;;;;;17.33;9.57;;;13.70;99.90;;;;;;4954875;28;20371;-76
2022/05/10 05:06:26;;;;;;;12.77;9.07;;;13.90;99.90;;;;;;4950455;28;20205;-76
2022/05/10 05:08:54;;;;;;;12.80;8.87;;;14.00;99.90;;;;;;4963797;28;20229;-74
2022/05/10 05:11:20;;;;;;;12.80;9.30;;;14.10;99.90;;;;;;4953067;28;20215;-78
2022/05/10 05:13:47;;;;;;;12.77;9.80;;;14.20;99.90;;;;;;4953403;28;20220;-73
2022/05/10 05:16:14;;;;;;;15.10;8.93;;;14.20;99.90;;;;;;4954556;28;20247;-78
2022/05/10 05:18:41;;;;;;;12.47;9.53;;;14.30;99.90;;;;;;4950581;28;20465;-76
2022/05/10 05:21:07;;;;;;;12.07;8.80;;;14.50;99.90;;;;;;4953843;28;20213;-74
2022/05/10 05:23:34;;;;;;;12.33;8.80;;;14.50;99.90;;;;;;4954451;28;20210;-77
2022/05/10 05:26:01;;;;;;;13.47;9.03;;;14.80;99.90;;;;;;4946915;28;20197;-74
2022/05/10 05:28:29;;;;;;;11.07;9.17;;;15.00;99.90;;;;;;4947341;28;20280;-74
2022/05/10 05:30:57;;;;;;;12.93;9.50;;;15.20;99.90;;;;;;4958234;28;20226;-74
2022/05/10 05:33:24;;;;;;;12.23;8.90;;;15.40;99.90;;;;;;4956130;28;20190;-74
2022/05/10 05:35:50;;;;;;;12.23;8.50;;;15.60;99.90;;;;;;4955469;28;20202;-76
2022/05/10 05:38:17;;;;;;;13.40;8.57;;;15.80;99.90;;;;;;4955047;28;20237;-72
2022/05/10 05:40:44;;;;;;;12.60;9.00;;;15.90;99.90;;;;;;4955474;28;20206;-73
2022/05/10 05:43:18;;;;;;;9.67;8.53;;;16.00;99.90;;;;;;4950249;28;20733;-73
2022/05/10 05:45:45;;;;;;;14.63;9.83;;;16.10;99.90;;;;;;4955915;28;20206;-73
2022/05/10 05:48:12;;;;;;;14.50;8.70;;;16.10;99.90;;;;;;4949077;28;20620;-73
2022/05/10 05:50:39;;;;;;;12.17;8.40;;;16.00;99.90;;;;;;4957182;28;20237;-73
2022/05/10 05:53:06;;;;;;;12.97;8.67;;;16.10;99.90;;;;;;4950450;28;20771;-71
2022/05/10 05:55:33;;;;;;;12.23;8.87;;;16.30;99.90;;;;;;4952606;28;20241;-75
2022/05/10 05:58:00;;;;;;;13.00;8.83;;;16.30;99.90;;;;;;4956317;28;20217;-73
2022/05/10 06:00:27;;;;;;;10.33;8.27;;;16.20;99.90;;;;;;4962681;28;20549;-73
2022/05/10 06:02:54;;;;;;;13.20;7.93;;;16.30;99.90;;;;;;4954179;28;20764;-73
2022/05/10 06:05:23;;;;;;;9.87;8.23;;;16.50;99.90;;;;;;4956609;28;20190;-76
2022/05/10 06:07:50;;;;;;;10.87;8.40;;;16.70;99.90;;;;;;4958665;28;20229;-73
2022/05/10 06:10:17;;;;;;;14.83;8.40;;;16.90;99.90;;;;;;4957356;28;20190;-72
2022/05/10 06:12:43;;;;;;;12.93;8.87;;;16.60;99.90;;;;;;4957744;28;20222;-74
2022/05/10 06:15:13;;;;;;;11.50;9.00;;;16.30;99.90;;;;;;4956466;28;20206;-73
2022/05/10 06:17:42;;;;;;;10.03;8.30;;;16.50;99.90;;;;;;4952882;28;20214;-73
2022/05/10 06:20:10;;;;;;;13.83;8.40;;;16.60;99.90;;;;;;4955463;28;20683;-71
2022/05/10 06:22:37;;;;;;;15.53;9.13;;;16.80;99.90;;;;;;4943104;28;20202;-76
2022/05/10 06:25:05;;;;;;;12.80;8.90;;;16.80;99.90;;;;;;4950010;28;20198;-74
2022/05/10 06:27:32;;;;;;;12.70;9.30;;;16.90;99.90;;;;;;4949212;28;20285;-76
2022/05/10 06:29:59;;;;;;;12.20;8.73;;;16.90;99.90;;;;;;4951737;28;20205;-74
2022/05/10 06:32:27;;;;;;;13.57;9.30;;;17.20;99.90;;;;;;4954882;28;20234;-72
2022/05/10 06:34:54;;;;;;;14.40;9.20;;;17.30;99.90;;;;;;4944380;28;20198;-75
2022/05/10 06:40:12;;;;;;;12.90;9.20;;;17.50;99.90;;;;;;4950651;28;20202;-76
2022/05/10 06:42:40;;;;;;;17.00;8.40;;;17.40;99.90;;;;;;4953065;28;20506;-74
2022/05/10 06:45:10;;;;;;;10.70;8.63;;;17.50;99.90;;;;;;4947000;28;22391;-75
2022/05/10 06:47:39;;;;;;;13.00;8.67;;;17.70;99.90;;;;;;4950894;28;20230;-74
2022/05/10 06:50:08;;;;;;;14.83;8.33;;;17.70;99.90;;;;;;4954329;28;20212;-76
2022/05/10 06:52:36;;;;;;;15.33;8.13;;;17.80;99.90;;;;;;4952557;28;20305;-76
2022/05/10 06:55:04;;;;;;;12.13;8.30;;;17.80;99.90;;;;;;4949761;28;21029;-76
2022/05/10 06:57:31;;;;;;;18.50;8.40;;;17.90;99.90;;;;;;4947712;28;20219;-74
2022/05/10 06:59:58;;;;;;;15.37;8.13;;;18.10;99.90;;;;;;4948437;28;20599;-73
2022/05/10 07:02:25;;;;;;;14.80;7.83;;;18.40;99.90;;;;;;4956224;28;20205;-74
2022/05/10 07:04:52;;;;;;;13.90;7.87;;;18.50;99.90;;;;;;4957215;28;20202;-73
2022/05/10 07:07:19;;;;;;;15.10;8.30;;;18.50;99.90;;;;;;4947972;28;20855;-75
2022/05/10 07:09:46;;;;;;;22.93;8.77;;;18.90;99.90;;;;;;4948296;28;20213;-73
2022/05/10 07:12:13;;;;;;;13.30;7.40;;;19.60;99.90;;;;;;4953088;28;20218;-76
2022/05/10 07:14:39;;;;;;;10.07;7.03;;;20.10;99.90;;;;;;4940927;28;20205;-77
2022/05/10 07:17:06;;;;;;;8.47;6.43;;;20.10;99.90;;;;;;4958734;28;20620;-74
2022/05/10 07:19:32;;;;;;;10.37;7.07;;;20.20;99.90;;;;;;4946134;28;20201;-71
2022/05/10 07:21:59;;;;;;;10.03;6.13;;;20.30;99.90;;;;;;4949027;28;20262;-75
2022/05/10 07:24:26;;;;;;;10.87;6.67;;;20.60;99.90;;;;;;4947909;28;20221;-75
2022/05/10 07:26:52;;;;;;;8.60;6.47;;;21.10;99.90;;;;;;4950311;28;20205;-76
2022/05/10 07:29:19;;;;;;;9.50;6.40;;;21.20;99.90;;;;;;4949522;28;20209;-74
2022/05/10 07:31:46;;;;;;;8.20;6.72;;;21.60;99.90;;;;;;4942842;28;20729;-78
2022/05/10 07:34:13;;;;;;;10.57;7.03;;;21.80;99.90;;;;;;4949450;28;20746;-72
2022/05/10 07:36:40;;;;;;;11.45;8.15;;;22.00;99.90;;;;;;4950212;28;20202;-73
2022/05/10 07:39:10;;;;;;;11.30;7.63;;;22.10;99.90;;;;;;4942902;28;20218;-74
2022/05/10 07:41:38;;;;;;;15.02;8.55;;;22.20;99.90;;;;;;4949481;28;20701;-75
2022/05/10 07:44:06;;;;;;;15.32;8.10;;;22.60;99.90;;;;;;4955151;28;20200;-75
2022/05/10 07:46:33;;;;;;;12.90;7.90;;;22.70;99.90;;;;;;4948943;28;20198;-77
2022/05/10 07:48:59;;;;;;;13.60;7.80;;;22.40;99.90;;;;;;4953289;28;20731;-74
2022/05/10 07:51:26;;;;;;;14.45;8.77;;;22.30;99.90;;;;;;4953530;28;20222;-74
2022/05/10 07:53:53;;;;;;;14.18;8.57;;;22.30;99.90;;;;;;4950868;28;20198;-78
2022/05/10 07:56:19;;;;;;;11.23;7.32;;;22.30;99.90;;;;;;4940724;28;20713;-71
2022/05/10 07:58:56;;;;;;;10.98;7.57;;;22.30;99.90;;;;;;4957993;28;20218;-75
2022/05/10 08:01:24;;;;;;;12.18;7.88;;;22.10;99.90;;;;;;4949603;28;20230;-74
2022/05/10 08:03:51;;;;;;;10.13;6.78;;;21.90;99.90;;;;;;4961870;28;20206;-76
2022/05/10 08:06:18;;;;;;;12.40;7.20;;;22.20;99.90;;;;;;4962799;28;20202;-77
2022/05/10 08:08:45;;;;;;;9.95;6.82;;;22.20;99.90;;;;;;4957501;28;20221;-77
2022/05/10 08:11:11;;;;;;;10.00;6.47;;;21.90;99.90;;;;;;4957529;28;20592;-75
2022/05/10 08:13:39;;;;;;;12.23;7.53;;;22.00;99.90;;;;;;4957671;28;20198;-75
2022/05/10 08:16:09;;;;;;;12.15;6.80;;;22.00;99.90;;;;;;4960995;28;20248;-78
2022/05/10 08:18:40;;;;;;;9.70;7.55;;;22.10;99.90;;;;;;4954976;28;20232;-76
2022/05/10 08:21:07;;;;;;;10.13;6.82;;;22.40;99.90;;;;;;4957262;28;20202;-73
2022/05/10 08:23:36;;;;;;;9.65;7.07;;;22.70;99.90;;;;;;4958305;28;20258;-76
2022/05/10 08:26:04;;;;;;;14.98;7.90;;;22.80;99.90;;;;;;4956755;28;20193;-77
2022/05/10 08:28:32;;;;;;;9.27;7.20;;;23.10;99.90;;;;;;4948796;28;20233;-72
2022/05/10 08:30:58;;;;;;;10.48;6.78;;;23.40;99.90;;;;;;4951754;28;20202;-73
2022/05/10 08:33:31;;;;;;;18.90;7.65;;;23.60;99.90;;;;;;4954417;28;20194;-78
2022/05/10 08:35:59;;;;;;;12.60;7.97;;;23.70;99.90;;;;;;4951950;28;20194;-77
2022/05/10 08:38:27;;;;;;;13.27;7.68;;;23.70;99.90;;;;;;4950759;28;20574;-77
2022/05/10 08:41:03;;;;;;;18.25;7.60;;;23.80;99.90;;;;;;4952459;28;20198;-77
2022/05/10 08:43:46;;;;;;;11.70;8.25;;;23.80;99.90;;;;;;4946098;28;20198;-78
2022/05/10 08:46:21;;;;;;;14.73;8.60;;;23.60;99.90;;;;;;4957638;28;20194;-74
2022/05/10 08:48:53;;;;;;;12.77;8.00;;;23.40;99.90;;;;;;4955385;28;20438;-76
2022/05/10 08:51:22;;;;;;;11.77;7.57;;;23.30;99.90;;;;;;4951047;28;20434;-74
2022/05/10 08:53:49;;;;;;;15.95;8.68;;;23.50;99.90;;;;;;4954945;28;20202;-75
2022/05/10 08:56:22;;;;;;;15.02;8.88;;;23.70;99.90;;;;;;4949579;28;20248;-72
2022/05/10 08:59:26;;;;;;;13.80;8.45;;;23.90;99.90;;;;;;4954556;28;20280;-74
2022/05/10 09:01:59;;;;;;;13.90;8.35;;;24.20;99.90;;;;;;4958791;28;20212;-75
2022/05/10 09:04:43;;;;;;;16.42;8.07;;;24.50;99.90;;;;;;4954658;28;20206;-72
2022/05/10 09:07:38;;;;;;;14.57;8.05;;;24.80;99.90;;;;;;4948953;28;20218;-73
2022/05/10 09:10:38;;;;;;;13.20;8.63;;;25.20;99.90;;;;;;4962045;28;20678;-75
2022/05/10 09:13:13;;;;;;;11.75;8.65;;;25.20;99.90;;;;;;4958147;28;20221;-74
2022/05/10 09:15:47;;;;;;;12.93;10.00;;;25.50;99.90;;;;;;4950833;28;20208;-76
2022/05/10 09:18:34;;;;;;;12.57;9.15;;;25.70;99.90;;;;;;4937823;28;20249;-76
2022/05/10 09:21:25;;;;;;;11.65;9.68;;;25.60;99.90;;;;;;4952776;28;21009;-74
2022/05/10 09:24:22;;;;;;;13.27;10.45;;;25.70;99.90;;;;;;4956354;28;20215;-79
2022/05/10 09:26:52;;;;;;;11.82;9.57;;;25.40;99.90;;;;;;4952208;28;20701;-72
2022/05/10 09:29:44;;;;;;;12.95;9.25;;;25.60;99.90;;;;;;4952704;28;20209;-74
2022/05/10 09:35:26;;;;;;;15.10;10.73;;;26.20;99.90;;;;;;4956435;28;20277;-76
2022/05/10 09:38:03;;;;;;;12.70;9.85;;;25.90;99.90;;;;;;4958531;28;20221;-76
2022/05/10 09:40:34;;;;;;;10.75;9.07;;;25.80;99.90;;;;;;4953138;28;20217;-78
2022/05/10 09:43:17;;;;;;;11.98;8.27;;;25.60;99.90;;;;;;4961548;28;20619;-76
2022/05/10 09:46:02;;;;;;;14.82;9.65;;;26.00;99.90;;;;;;4956714;28;20209;-75
2022/05/10 09:48:29;;;;;;;15.30;10.45;;;26.40;99.90;;;;;;4953683;28;20237;-76
2022/05/10 09:50:56;;;;;;;14.90;9.55;;;26.50;99.90;;;;;;4953444;28;20210;-76
2022/05/10 09:53:27;;;;;;;13.45;9.88;;;26.70;99.90;;;;;;4952855;28;20270;-75
2022/05/10 09:56:40;;;;;;;12.35;8.50;;;26.80;99.90;;;;;;4957504;28;20202;-74
2022/05/10 09:59:15;;;;;;;12.77;8.40;;;27.00;99.90;;;;;;4934233;29;20225;-77
2022/05/10 10:01:46;;;;;;;16.23;9.68;;;27.20;99.90;;;;;;4940780;29;20671;-76
2022/05/10 10:04:19;;;;;;;13.55;9.80;;;27.20;99.90;;;;;;4948997;28;20329;-74
2022/05/10 10:07:13;;;;;;;11.93;10.45;;;27.50;99.90;;;;;;4953306;28;20206;-79
2022/05/10 10:09:44;;;;;;;16.63;9.30;;;27.60;99.90;;;;;;4952124;28;20263;-78
2022/05/10 10:12:40;;;;;;;12.68;9.70;;;27.40;99.90;;;;;;4962192;28;20217;-76
2022/05/10 10:15:25;;;;;;;16.45;9.68;;;27.30;99.90;;;;;;4957184;28;20229;-78
2022/05/10 10:17:58;;;;;;;12.35;10.45;;;27.50;99.90;;;;;;4953379;28;20252;-78
2022/05/10 10:20:29;;;;;;;14.57;9.95;;;27.50;99.90;;;;;;4959171;28;20602;-75
2022/05/10 10:23:00;;;;;;;11.07;9.02;;;27.30;99.90;;;;;;4956186;28;20206;-74
2022/05/10 10:25:35;;;;;;;14.40;9.30;;;27.60;99.90;;;;;;4951186;28;20209;-76
2022/05/10 10:28:29;;;;;;;12.27;9.57;;;27.70;99.90;;;;;;4952974;28;20315;-74
2022/05/10 10:31:03;;;;;;;10.30;8.40;;;27.90;99.90;;;;;;4955487;28;20205;-77
2022/05/10 10:33:43;;;;;;;10.00;8.23;;;28.00;99.90;;;;;;4952530;28;20597;-77
2022/05/10 10:36:16;;;;;;;9.90;8.10;;;28.40;99.90;;;;;;4947179;28;20280;-76
2022/05/10 10:38:59;;;;;;;11.43;7.82;;;28.50;99.90;;;;;;4948650;28;20225;-76
2022/05/10 10:41:35;;;;;;;10.40;7.93;;;28.60;99.90;;;;;;4949399;28;20198;-75
2022/05/10 10:44:17;;;;;;;10.35;8.20;;;28.90;99.90;;;;;;4953661;28;20210;-77
2022/05/10 10:46:57;;;;;;;10.40;8.00;;;29.20;99.90;;;;;;4951624;28;20228;-75
2022/05/10 10:49:32;;;;;;;8.50;7.28;;;29.50;99.90;;;;;;4947328;28;20206;-74
2022/05/10 10:51:59;;;;;;;9.43;6.72;;;29.60;99.90;;;;;;4959024;28;20231;-75
2022/05/10 10:54:29;;;;;;;7.85;6.95;;;29.90;99.90;;;;;;4946667;28;20567;-79
2022/05/10 10:57:42;;;;;;;12.27;7.47;;;30.20;99.90;;;;;;4948589;28;20259;-82
2022/05/10 11:00:29;;;;;;;9.50;8.05;;;30.40;99.90;;;;;;4950921;28;20670;-78
2022/05/10 11:03:16;;;;;;;7.82;6.53;;;30.20;99.90;;;;;;4951286;28;20588;-74
2022/05/10 11:05:59;;;;;;;8.57;6.72;;;30.00;99.90;;;;;;4949996;28;20198;-78
2022/05/10 11:08:31;;;;;;;9.13;7.40;;;30.10;99.90;;;;;;4946813;28;20229;-77
2022/05/10 11:11:14;;;;;;;8.63;7.63;;;30.10;99.90;;;;;;4955570;28;20206;-80
2022/05/10 11:13:59;;;;;;;6.78;6.07;;;29.90;99.90;;;;;;4952833;28;20226;-78
2022/05/10 11:16:29;;;;;;;8.90;6.18;;;30.30;99.90;;;;;;4953581;28;20198;-75
2022/05/10 11:19:14;;;;;;;9.98;6.63;;;30.70;99.90;;;;;;4959791;28;20280;-78
2022/05/10 11:21:53;;;;;;;8.30;6.82;;;30.80;99.90;;;;;;4957326;28;20193;-77
2022/05/10 11:24:26;;;;;;;7.85;6.50;;;30.90;99.90;;;;;;4952832;28;20202;-79
2022/05/10 11:27:11;;;;;;;7.20;5.85;;;31.10;99.90;;;;;;4958296;28;20289;-77
2022/05/10 11:29:50;;;;;;;7.45;6.03;;;31.00;99.90;;;;;;4958948;28;20209;-78
2022/05/10 11:32:46;;;;;;;6.85;5.85;;;31.10;99.90;;;;;;4950661;28;20222;-78
2022/05/10 11:35:16;;;;;;;6.10;5.50;;;31.10;99.90;;;;;;4949687;28;20202;-77
2022/05/10 11:37:55;;;;;;;6.90;6.07;;;31.00;99.90;;;;;;4956069;28;20764;-81
2022/05/10 11:40:36;;;;;;;10.50;6.32;;;30.90;99.90;;;;;;4949526;28;20599;-77
2022/05/10 11:43:27;;;;;;;7.05;6.13;;;31.20;99.90;;;;;;4951090;28;20578;-78
2022/05/10 11:46:15;;;;;;;8.00;6.55;;;31.10;99.90;;;;;;4957587;28;20199;-76
2022/05/10 11:48:52;;;;;;;9.73;6.63;;;31.10;99.90;;;;;;4953023;28;20610;-77
2022/05/10 11:51:43;;;;;;;9.23;5.93;;;30.90;99.90;;;;;;4957417;28;20197;-76
2022/05/10 11:54:50;;;;;;;8.75;6.55;;;30.80;99.90;;;;;;4952531;28;20673;-76
2022/05/10 11:57:19;;;;;;;7.25;5.70;;;30.80;99.90;;;;;;4957357;28;20217;-75
2022/05/10 11:59:46;;;;;;;9.30;6.30;;;31.20;99.90;;;;;;4957940;28;20206;-79
2022/05/10 12:02:33;;;;;;;8.10;6.47;;;30.90;99.90;;;;;;4944991;28;20574;-76
2022/05/10 12:05:18;;;;;;;7.80;6.38;;;30.90;99.90;;;;;;4952271;28;20243;-76
2022/05/10 12:07:46;;;;;;;7.65;6.38;;;30.80;99.90;;;;;;4954223;28;20217;-77
2022/05/10 12:10:22;;;;;;;9.13;6.45;;;30.40;99.90;;;;;;4959428;28;20197;-77
2022/05/10 12:12:52;;;;;;;6.85;6.07;;;30.50;99.90;;;;;;4955866;28;20218;-77
2022/05/10 12:21:28;;;;;;;15.32;6.13;;;30.60;99.90;;;;;;4951047;28;20194;-78
2022/05/10 12:24:03;;;;;;;12.90;5.32;;;30.10;99.90;;;;;;4953396;28;20202;-78
2022/05/10 12:26:48;;;;;;;6.20;5.45;;;30.00;99.90;;;;;;4957777;28;20194;-75
2022/05/10 12:29:39;;;;;;;6.35;5.40;;;29.80;99.90;;;;;;4957641;28;20242;-77
2022/05/10 12:32:18;;;;;;;6.22;5.63;;;29.90;99.90;;;;;;4955148;28;20729;-77
2022/05/10 12:34:50;;;;;;;6.68;5.82;;;30.10;99.90;;;;;;4955653;28;20622;-78
2022/05/10 12:37:24;;;;;;;9.27;5.75;;;30.60;99.90;;;;;;4957758;28;20717;-80
2022/05/10 12:40:09;;;;;;;6.15;5.45;;;31.20;99.90;;;;;;4949383;28;20205;-78
2022/05/10 12:42:58;;;;;;;6.88;5.65;;;31.50;99.90;;;;;;4951052;28;20603;-80
2022/05/10 12:45:45;;;;;;;9.05;5.55;;;31.60;99.90;;;;;;4950347;28;20281;-77
2022/05/10 12:48:43;;;;;;;6.63;5.75;;;31.10;99.90;;;;;;4957937;28;20221;-76
2022/05/10 12:51:45;;;;;;;6.95;6.15;;;31.10;99.90;;;;;;4960543;28;20706;-80
2022/05/10 12:54:24;;;;;;;6.45;5.75;;;30.90;99.90;;;;;;4937649;28;20229;-77
2022/05/10 12:57:30;;;;;;;6.97;5.70;;;31.00;99.90;;;;;;4960278;28;20214;-79
2022/05/10 13:00:01;;;;;;;6.60;5.90;;;30.90;99.90;;;;;;4961219;28;20201;-80
2022/05/10 13:02:30;;;;;;;8.07;5.88;;;30.90;99.90;;;;;;4950677;28;20210;-77
2022/05/10 13:05:01;;;;;;;8.95;6.45;;;30.90;99.90;;;;;;4957563;28;20209;-79
2022/05/10 13:07:43;;;;;;;7.47;6.13;;;31.00;99.90;;;;;;4960170;28;20271;-78
2022/05/10 13:10:16;;;;;;;7.03;6.32;;;31.10;99.90;;;;;;4960401;28;20190;-78
2022/05/10 13:12:49;;;;;;;9.32;7.30;;;31.40;99.90;;;;;;4958068;28;20230;-76
2022/05/10 13:15:19;;;;;;;9.27;6.70;;;31.30;99.90;;;;;;4956860;28;20196;-82
2022/05/10 13:17:51;;;;;;;8.77;6.43;;;31.10;99.90;;;;;;4950525;28;20226;-80
2022/05/10 13:20:27;;;;;;;7.25;6.13;;;30.90;99.90;;;;;;4949358;28;20201;-78
2022/05/10 13:22:55;;;;;;;7.47;6.78;;;31.00;99.90;;;;;;4956365;28;20666;-78
2022/05/10 13:25:42;;;;;;;9.45;6.90;;;30.70;99.90;;;;;;4959717;28;20198;-81
2022/05/10 13:28:22;;;;;;;9.50;6.60;;;30.60;99.90;;;;;;4955069;28;20237;-75
2022/05/10 13:30:57;;;;;;;9.52;6.40;;;30.70;99.90;;;;;;4950169;28;20209;-80